sensor_id;sensor_type;location;lat;lon;timestamp;P1;durP1;ratioP1;P2;durP2;ratioP2
75295;SDS011;64623;44.738;37.804;2024-03-08T00:00:33;9.73;;;6.70;;
75295;SDS011;64623;44.738;37.804;2024-03-08T00:01:36;9.25;;;7.03;;
75295;SDS011;64623;44.738;37.804;2024-03-08T00:02:40;8.38;;;5.75;;
75295;SDS011;64623;44.738;37.804;2024-03-08T00:03:50;8.05;;;5.90;;
75295;SDS011;64623;44.738;37.804;2024-03-08T00:04:54;8.00;;;5.60;;
75295;SDS011;64623;44.738;37.804;2024-03-08T00:05:57;8.50;;;6.10;;
75295;SDS011;64623;44.738;37.804;2024-03-08T00:07:00;7.22;;;5.03;;
75295;SDS011;64623;44.738;37.804;2024-03-08T00:08:04;9.02;;;6.47;;
75295;SDS011;64623;44.738;37.804;2024-03-08T00:09:11;7.78;;;5.75;;
75295;SDS011;64623;44.738;37.804;2024-03-08T00:10:14;8.82;;;5.93;;
75295;SDS011;64623;44.738;37.804;2024-03-08T00:11:19;7.05;;;4.70;;
75295;SDS011;64623;44.738;37.804;2024-03-08T00:12:23;8.27;;;6.18;;
75295;SDS011;64623;44.738;37.804;2024-03-08T00:13:28;7.90;;;6.10;;
75295;SDS011;64623;44.738;37.804;2024-03-08T00:14:31;8.57;;;6.18;;
75295;SDS011;64623;44.738;37.804;2024-03-08T00:15:34;9.07;;;6.78;;
75295;SDS011;64623;44.738;37.804;2024-03-08T00:16:37;9.75;;;7.60;;
75295;SDS011;64623;44.738;37.804;2024-03-08T00:17:41;9.10;;;6.53;;
75295;SDS011;64623;44.738;37.804;2024-03-08T00:18:45;8.13;;;6.03;;
75295;SDS011;64623;44.738;37.804;2024-03-08T00:19:48;7.53;;;5.82;;
75295;SDS011;64623;44.738;37.804;2024-03-08T00:20:54;6.85;;;4.85;;
75295;SDS011;64623;44.738;37.804;2024-03-08T00:21:58;7.68;;;5.57;;
75295;SDS011;64623;44.738;37.804;2024-03-08T00:23:01;8.82;;;6.55;;
75295;SDS011;64623;44.738;37.804;2024-03-08T00:24:05;7.95;;;6.28;;
75295;SDS011;64623;44.738;37.804;2024-03-08T00:25:08;8.60;;;6.47;;
75295;SDS011;64623;44.738;37.804;2024-03-08T00:26:11;9.70;;;7.00;;
75295;SDS011;64623;44.738;37.804;2024-03-08T00:27:14;10.40;;;7.55;;
75295;SDS011;64623;44.738;37.804;2024-03-08T00:28:18;9.23;;;7.03;;
75295;SDS011;64623;44.738;37.804;2024-03-08T00:29:21;8.30;;;6.75;;
75295;SDS011;64623;44.738;37.804;2024-03-08T00:30:24;8.55;;;6.30;;
75295;SDS011;64623;44.738;37.804;2024-03-08T00:31:27;9.48;;;6.68;;
75295;SDS011;64623;44.738;37.804;2024-03-08T00:32:30;9.88;;;7.07;;
75295;SDS011;64623;44.738;37.804;2024-03-08T00:33:34;9.85;;;7.32;;
75295;SDS011;64623;44.738;37.804;2024-03-08T00:34:37;8.40;;;6.15;;
75295;SDS011;64623;44.738;37.804;2024-03-08T00:35:40;8.35;;;6.20;;
75295;SDS011;64623;44.738;37.804;2024-03-08T00:36:43;9.70;;;6.78;;
75295;SDS011;64623;44.738;37.804;2024-03-08T00:37:46;9.38;;;6.75;;
75295;SDS011;64623;44.738;37.804;2024-03-08T00:38:49;8.45;;;6.10;;
75295;SDS011;64623;44.738;37.804;2024-03-08T00:39:52;8.93;;;6.93;;
75295;SDS011;64623;44.738;37.804;2024-03-08T00:40:56;9.30;;;6.85;;
75295;SDS011;64623;44.738;37.804;2024-03-08T00:41:59;8.93;;;6.15;;
75295;SDS011;64623;44.738;37.804;2024-03-08T00:43:02;8.75;;;6.13;;
75295;SDS011;64623;44.738;37.804;2024-03-08T00:44:06;7.43;;;5.63;;
75295;SDS011;64623;44.738;37.804;2024-03-08T00:45:09;7.55;;;5.93;;
75295;SDS011;64623;44.738;37.804;2024-03-08T00:46:13;8.50;;;6.00;;
75295;SDS011;64623;44.738;37.804;2024-03-08T00:47:17;8.05;;;5.78;;
75295;SDS011;64623;44.738;37.804;2024-03-08T00:48:20;7.78;;;6.10;;
75295;SDS011;64623;44.738;37.804;2024-03-08T00:49:23;8.55;;;6.15;;
75295;SDS011;64623;44.738;37.804;2024-03-08T00:50:26;9.48;;;6.20;;
75295;SDS011;64623;44.738;37.804;2024-03-08T00:51:29;8.98;;;6.43;;
75295;SDS011;64623;44.738;37.804;2024-03-08T00:52:32;8.98;;;6.25;;
75295;SDS011;64623;44.738;37.804;2024-03-08T00:53:37;8.43;;;6.28;;
75295;SDS011;64623;44.738;37.804;2024-03-08T00:54:40;8.88;;;6.10;;
75295;SDS011;64623;44.738;37.804;2024-03-08T00:55:43;9.23;;;6.68;;
75295;SDS011;64623;44.738;37.804;2024-03-08T00:56:48;7.68;;;6.20;;
75295;SDS011;64623;44.738;37.804;2024-03-08T00:57:51;9.60;;;7.13;;
75295;SDS011;64623;44.738;37.804;2024-03-08T00:58:55;8.10;;;6.30;;
75295;SDS011;64623;44.738;37.804;2024-03-08T00:59:58;9.07;;;6.47;;
75295;SDS011;64623;44.738;37.804;2024-03-08T01:01:02;9.82;;;7.25;;
75295;SDS011;64623;44.738;37.804;2024-03-08T01:02:05;8.43;;;6.07;;
75295;SDS011;64623;44.738;37.804;2024-03-08T01:03:08;8.07;;;6.15;;
75295;SDS011;64623;44.738;37.804;2024-03-08T01:04:13;8.00;;;5.40;;
75295;SDS011;64623;44.738;37.804;2024-03-08T01:05:16;9.18;;;6.72;;
75295;SDS011;64623;44.738;37.804;2024-03-08T01:06:19;9.60;;;6.85;;
75295;SDS011;64623;44.738;37.804;2024-03-08T01:07:22;9.13;;;6.10;;
75295;SDS011;64623;44.738;37.804;2024-03-08T01:08:25;9.95;;;6.90;;
75295;SDS011;64623;44.738;37.804;2024-03-08T01:09:28;10.20;;;7.10;;
75295;SDS011;64623;44.738;37.804;2024-03-08T01:10:31;9.93;;;7.47;;
75295;SDS011;64623;44.738;37.804;2024-03-08T01:11:34;10.68;;;7.70;;
75295;SDS011;64623;44.738;37.804;2024-03-08T01:12:38;10.90;;;7.85;;
75295;SDS011;64623;44.738;37.804;2024-03-08T01:13:41;9.88;;;6.78;;
75295;SDS011;64623;44.738;37.804;2024-03-08T01:14:44;12.90;;;8.25;;
75295;SDS011;64623;44.738;37.804;2024-03-08T01:15:47;11.73;;;8.25;;
75295;SDS011;64623;44.738;37.804;2024-03-08T01:16:50;11.00;;;7.97;;
75295;SDS011;64623;44.738;37.804;2024-03-08T01:17:53;11.25;;;8.05;;
75295;SDS011;64623;44.738;37.804;2024-03-08T01:18:56;12.13;;;8.32;;
75295;SDS011;64623;44.738;37.804;2024-03-08T01:19:59;10.68;;;7.47;;
75295;SDS011;64623;44.738;37.804;2024-03-08T01:21:02;10.93;;;7.53;;
75295;SDS011;64623;44.738;37.804;2024-03-08T01:22:06;11.30;;;8.18;;
75295;SDS011;64623;44.738;37.804;2024-03-08T01:23:09;11.43;;;7.97;;
75295;SDS011;64623;44.738;37.804;2024-03-08T01:24:12;10.38;;;6.93;;
75295;SDS011;64623;44.738;37.804;2024-03-08T01:25:15;11.05;;;7.75;;
75295;SDS011;64623;44.738;37.804;2024-03-08T01:26:18;13.00;;;8.68;;
75295;SDS011;64623;44.738;37.804;2024-03-08T01:27:21;11.20;;;7.35;;
75295;SDS011;64623;44.738;37.804;2024-03-08T01:28:25;12.57;;;8.90;;
75295;SDS011;64623;44.738;37.804;2024-03-08T01:29:29;13.55;;;8.90;;
75295;SDS011;64623;44.738;37.804;2024-03-08T01:30:34;11.88;;;8.65;;
75295;SDS011;64623;44.738;37.804;2024-03-08T01:31:39;12.80;;;9.48;;
75295;SDS011;64623;44.738;37.804;2024-03-08T01:32:42;12.25;;;8.80;;
75295;SDS011;64623;44.738;37.804;2024-03-08T01:33:46;12.63;;;8.38;;
75295;SDS011;64623;44.738;37.804;2024-03-08T01:34:49;11.63;;;8.10;;
75295;SDS011;64623;44.738;37.804;2024-03-08T01:35:52;11.75;;;8.73;;
75295;SDS011;64623;44.738;37.804;2024-03-08T01:36:55;11.32;;;8.20;;
75295;SDS011;64623;44.738;37.804;2024-03-08T01:37:59;13.90;;;10.18;;
75295;SDS011;64623;44.738;37.804;2024-03-08T01:39:01;11.63;;;7.65;;
75295;SDS011;64623;44.738;37.804;2024-03-08T01:40:05;13.10;;;9.52;;
75295;SDS011;64623;44.738;37.804;2024-03-08T01:41:10;13.70;;;9.02;;
75295;SDS011;64623;44.738;37.804;2024-03-08T01:42:15;13.82;;;9.27;;
75295;SDS011;64623;44.738;37.804;2024-03-08T01:43:20;14.38;;;9.70;;
75295;SDS011;64623;44.738;37.804;2024-03-08T01:44:32;14.82;;;10.45;;
75295;SDS011;64623;44.738;37.804;2024-03-08T01:45:35;13.30;;;8.85;;
75295;SDS011;64623;44.738;37.804;2024-03-08T01:46:38;14.65;;;9.63;;
75295;SDS011;64623;44.738;37.804;2024-03-08T01:47:41;15.65;;;10.60;;
75295;SDS011;64623;44.738;37.804;2024-03-08T01:48:44;16.73;;;10.60;;
75295;SDS011;64623;44.738;37.804;2024-03-08T01:49:51;16.92;;;10.07;;
75295;SDS011;64623;44.738;37.804;2024-03-08T01:50:55;14.73;;;9.18;;
75295;SDS011;64623;44.738;37.804;2024-03-08T01:51:59;14.02;;;9.65;;
75295;SDS011;64623;44.738;37.804;2024-03-08T01:53:03;17.70;;;11.10;;
75295;SDS011;64623;44.738;37.804;2024-03-08T01:54:07;16.90;;;10.75;;
75295;SDS011;64623;44.738;37.804;2024-03-08T01:55:12;17.05;;;11.02;;
75295;SDS011;64623;44.738;37.804;2024-03-08T01:56:17;15.38;;;10.23;;
75295;SDS011;64623;44.738;37.804;2024-03-08T01:57:20;20.27;;;10.95;;
75295;SDS011;64623;44.738;37.804;2024-03-08T01:58:24;16.58;;;10.18;;
75295;SDS011;64623;44.738;37.804;2024-03-08T01:59:31;16.23;;;10.10;;
75295;SDS011;64623;44.738;37.804;2024-03-08T02:00:34;17.08;;;10.60;;
75295;SDS011;64623;44.738;37.804;2024-03-08T02:01:39;14.25;;;8.93;;
75295;SDS011;64623;44.738;37.804;2024-03-08T02:06:56;13.48;;;7.28;;
75295;SDS011;64623;44.738;37.804;2024-03-08T02:08:02;14.75;;;8.82;;
75295;SDS011;64623;44.738;37.804;2024-03-08T02:09:08;14.98;;;9.70;;
75295;SDS011;64623;44.738;37.804;2024-03-08T02:10:11;16.98;;;11.13;;
75295;SDS011;64623;44.738;37.804;2024-03-08T02:11:17;15.15;;;9.77;;
75295;SDS011;64623;44.738;37.804;2024-03-08T02:12:23;16.52;;;10.52;;
75295;SDS011;64623;44.738;37.804;2024-03-08T02:13:26;17.02;;;10.40;;
75295;SDS011;64623;44.738;37.804;2024-03-08T02:14:29;18.42;;;11.63;;
75295;SDS011;64623;44.738;37.804;2024-03-08T02:17:19;14.60;;;10.27;;
75295;SDS011;64623;44.738;37.804;2024-03-08T02:18:22;14.05;;;9.00;;
75295;SDS011;64623;44.738;37.804;2024-03-08T02:19:26;15.55;;;10.10;;
75295;SDS011;64623;44.738;37.804;2024-03-08T02:20:29;16.02;;;10.25;;
75295;SDS011;64623;44.738;37.804;2024-03-08T02:21:32;17.08;;;10.73;;
75295;SDS011;64623;44.738;37.804;2024-03-08T02:22:35;15.18;;;10.40;;
75295;SDS011;64623;44.738;37.804;2024-03-08T02:23:39;17.30;;;10.40;;
75295;SDS011;64623;44.738;37.804;2024-03-08T02:24:42;16.00;;;10.15;;
75295;SDS011;64623;44.738;37.804;2024-03-08T02:25:46;16.88;;;11.00;;
75295;SDS011;64623;44.738;37.804;2024-03-08T02:26:50;17.20;;;11.18;;
75295;SDS011;64623;44.738;37.804;2024-03-08T02:27:53;18.83;;;10.65;;
75295;SDS011;64623;44.738;37.804;2024-03-08T02:28:56;16.85;;;10.45;;
75295;SDS011;64623;44.738;37.804;2024-03-08T02:29:59;13.57;;;9.35;;
75295;SDS011;64623;44.738;37.804;2024-03-08T02:31:04;15.48;;;10.52;;
75295;SDS011;64623;44.738;37.804;2024-03-08T02:32:10;14.88;;;9.77;;
75295;SDS011;64623;44.738;37.804;2024-03-08T02:33:13;15.15;;;10.30;;
75295;SDS011;64623;44.738;37.804;2024-03-08T02:34:20;14.45;;;8.50;;
75295;SDS011;64623;44.738;37.804;2024-03-08T02:35:23;13.93;;;9.98;;
75295;SDS011;64623;44.738;37.804;2024-03-08T02:36:26;13.98;;;9.57;;
75295;SDS011;64623;44.738;37.804;2024-03-08T02:37:29;13.65;;;9.10;;
75295;SDS011;64623;44.738;37.804;2024-03-08T02:38:32;14.45;;;9.48;;
75295;SDS011;64623;44.738;37.804;2024-03-08T02:39:35;14.75;;;10.10;;
75295;SDS011;64623;44.738;37.804;2024-03-08T02:40:38;15.07;;;9.90;;
75295;SDS011;64623;44.738;37.804;2024-03-08T02:41:41;15.20;;;9.55;;
75295;SDS011;64623;44.738;37.804;2024-03-08T02:42:44;13.02;;;8.73;;
75295;SDS011;64623;44.738;37.804;2024-03-08T02:43:47;15.18;;;9.98;;
75295;SDS011;64623;44.738;37.804;2024-03-08T02:44:50;13.95;;;9.70;;
75295;SDS011;64623;44.738;37.804;2024-03-08T02:45:53;18.35;;;10.27;;
75295;SDS011;64623;44.738;37.804;2024-03-08T02:46:56;14.60;;;10.32;;
75295;SDS011;64623;44.738;37.804;2024-03-08T02:47:59;14.23;;;9.40;;
75295;SDS011;64623;44.738;37.804;2024-03-08T02:49:03;16.40;;;9.70;;
75295;SDS011;64623;44.738;37.804;2024-03-08T02:50:06;14.68;;;10.20;;
75295;SDS011;64623;44.738;37.804;2024-03-08T02:51:10;15.20;;;10.35;;
75295;SDS011;64623;44.738;37.804;2024-03-08T02:52:13;14.45;;;10.00;;
75295;SDS011;64623;44.738;37.804;2024-03-08T02:53:16;15.45;;;10.52;;
75295;SDS011;64623;44.738;37.804;2024-03-08T02:54:21;13.85;;;9.48;;
75295;SDS011;64623;44.738;37.804;2024-03-08T02:55:24;14.75;;;9.70;;
75295;SDS011;64623;44.738;37.804;2024-03-08T02:56:28;14.35;;;10.68;;
75295;SDS011;64623;44.738;37.804;2024-03-08T02:57:32;14.00;;;10.27;;
75295;SDS011;64623;44.738;37.804;2024-03-08T02:58:35;14.32;;;9.70;;
75295;SDS011;64623;44.738;37.804;2024-03-08T02:59:38;14.70;;;10.10;;
75295;SDS011;64623;44.738;37.804;2024-03-08T03:00:42;15.45;;;9.73;;
75295;SDS011;64623;44.738;37.804;2024-03-08T03:01:46;15.68;;;10.50;;
75295;SDS011;64623;44.738;37.804;2024-03-08T03:02:49;13.48;;;9.10;;
75295;SDS011;64623;44.738;37.804;2024-03-08T03:03:56;16.00;;;10.45;;
75295;SDS011;64623;44.738;37.804;2024-03-08T03:04:59;17.05;;;10.30;;
75295;SDS011;64623;44.738;37.804;2024-03-08T03:06:05;12.98;;;9.00;;
75295;SDS011;64623;44.738;37.804;2024-03-08T03:07:09;14.38;;;10.23;;
75295;SDS011;64623;44.738;37.804;2024-03-08T03:08:13;15.50;;;10.43;;
75295;SDS011;64623;44.738;37.804;2024-03-08T03:09:17;16.30;;;11.30;;
75295;SDS011;64623;44.738;37.804;2024-03-08T03:10:25;13.68;;;8.88;;
75295;SDS011;64623;44.738;37.804;2024-03-08T03:11:29;14.90;;;10.15;;
75295;SDS011;64623;44.738;37.804;2024-03-08T03:12:32;13.82;;;9.25;;
75295;SDS011;64623;44.738;37.804;2024-03-08T03:13:36;15.10;;;9.57;;
75295;SDS011;64623;44.738;37.804;2024-03-08T03:14:39;15.18;;;10.60;;
75295;SDS011;64623;44.738;37.804;2024-03-08T03:15:42;15.82;;;10.05;;
75295;SDS011;64623;44.738;37.804;2024-03-08T03:16:44;16.23;;;10.20;;
75295;SDS011;64623;44.738;37.804;2024-03-08T03:17:48;14.63;;;9.82;;
75295;SDS011;64623;44.738;37.804;2024-03-08T03:18:55;13.02;;;9.45;;
75295;SDS011;64623;44.738;37.804;2024-03-08T03:19:59;15.85;;;10.52;;
75295;SDS011;64623;44.738;37.804;2024-03-08T03:21:07;14.98;;;10.07;;
75295;SDS011;64623;44.738;37.804;2024-03-08T03:22:10;14.15;;;9.02;;
75295;SDS011;64623;44.738;37.804;2024-03-08T03:23:13;15.45;;;9.38;;
75295;SDS011;64623;44.738;37.804;2024-03-08T03:24:16;14.40;;;9.52;;
75295;SDS011;64623;44.738;37.804;2024-03-08T03:25:20;14.25;;;10.13;;
75295;SDS011;64623;44.738;37.804;2024-03-08T03:26:38;15.18;;;10.80;;
75295;SDS011;64623;44.738;37.804;2024-03-08T03:27:43;14.82;;;9.38;;
75295;SDS011;64623;44.738;37.804;2024-03-08T03:28:45;16.00;;;9.60;;
75295;SDS011;64623;44.738;37.804;2024-03-08T03:29:49;14.70;;;8.73;;
75295;SDS011;64623;44.738;37.804;2024-03-08T03:30:53;15.85;;;10.10;;
75295;SDS011;64623;44.738;37.804;2024-03-08T03:31:56;14.35;;;9.85;;
75295;SDS011;64623;44.738;37.804;2024-03-08T03:32:59;13.80;;;9.65;;
75295;SDS011;64623;44.738;37.804;2024-03-08T03:34:03;15.70;;;9.90;;
75295;SDS011;64623;44.738;37.804;2024-03-08T03:35:06;15.95;;;9.98;;
75295;SDS011;64623;44.738;37.804;2024-03-08T03:36:09;15.10;;;9.52;;
75295;SDS011;64623;44.738;37.804;2024-03-08T03:37:12;13.02;;;9.25;;
75295;SDS011;64623;44.738;37.804;2024-03-08T03:38:15;13.77;;;9.52;;
75295;SDS011;64623;44.738;37.804;2024-03-08T03:39:18;15.73;;;9.82;;
75295;SDS011;64623;44.738;37.804;2024-03-08T03:40:22;16.30;;;10.65;;
75295;SDS011;64623;44.738;37.804;2024-03-08T03:41:27;14.27;;;9.32;;
75295;SDS011;64623;44.738;37.804;2024-03-08T03:42:30;15.30;;;9.48;;
75295;SDS011;64623;44.738;37.804;2024-03-08T03:43:33;14.52;;;9.55;;
75295;SDS011;64623;44.738;37.804;2024-03-08T03:44:36;14.05;;;9.48;;
75295;SDS011;64623;44.738;37.804;2024-03-08T03:45:39;15.57;;;10.38;;
75295;SDS011;64623;44.738;37.804;2024-03-08T03:46:43;15.35;;;10.25;;
75295;SDS011;64623;44.738;37.804;2024-03-08T03:47:46;14.52;;;9.90;;
75295;SDS011;64623;44.738;37.804;2024-03-08T03:48:49;16.23;;;10.63;;
75295;SDS011;64623;44.738;37.804;2024-03-08T03:49:52;15.45;;;10.45;;
75295;SDS011;64623;44.738;37.804;2024-03-08T03:50:56;15.57;;;10.18;;
75295;SDS011;64623;44.738;37.804;2024-03-08T03:51:59;15.57;;;9.68;;
75295;SDS011;64623;44.738;37.804;2024-03-08T03:53:02;15.65;;;10.68;;
75295;SDS011;64623;44.738;37.804;2024-03-08T03:54:06;14.75;;;10.30;;
75295;SDS011;64623;44.738;37.804;2024-03-08T03:55:09;15.40;;;10.57;;
75295;SDS011;64623;44.738;37.804;2024-03-08T03:56:14;15.80;;;10.73;;
75295;SDS011;64623;44.738;37.804;2024-03-08T03:57:17;16.42;;;9.55;;
75295;SDS011;64623;44.738;37.804;2024-03-08T03:58:21;17.60;;;10.98;;
75295;SDS011;64623;44.738;37.804;2024-03-08T03:59:25;15.18;;;9.93;;
75295;SDS011;64623;44.738;37.804;2024-03-08T04:00:27;16.10;;;10.35;;
75295;SDS011;64623;44.738;37.804;2024-03-08T04:01:31;15.90;;;10.23;;
75295;SDS011;64623;44.738;37.804;2024-03-08T04:02:34;17.27;;;10.85;;
75295;SDS011;64623;44.738;37.804;2024-03-08T04:03:37;15.20;;;10.40;;
75295;SDS011;64623;44.738;37.804;2024-03-08T04:04:45;16.27;;;10.07;;
75295;SDS011;64623;44.738;37.804;2024-03-08T04:05:49;17.83;;;11.10;;
75295;SDS011;64623;44.738;37.804;2024-03-08T04:06:53;18.27;;;11.15;;
75295;SDS011;64623;44.738;37.804;2024-03-08T04:07:56;15.95;;;9.80;;
75295;SDS011;64623;44.738;37.804;2024-03-08T04:08:59;17.73;;;10.57;;
75295;SDS011;64623;44.738;37.804;2024-03-08T04:10:03;18.40;;;11.60;;
75295;SDS011;64623;44.738;37.804;2024-03-08T04:11:08;16.30;;;10.52;;
75295;SDS011;64623;44.738;37.804;2024-03-08T04:12:11;16.85;;;10.63;;
75295;SDS011;64623;44.738;37.804;2024-03-08T04:13:14;16.58;;;10.40;;
75295;SDS011;64623;44.738;37.804;2024-03-08T04:14:18;18.17;;;11.80;;
75295;SDS011;64623;44.738;37.804;2024-03-08T04:15:20;17.35;;;10.00;;
75295;SDS011;64623;44.738;37.804;2024-03-08T04:16:24;20.83;;;11.68;;
75295;SDS011;64623;44.738;37.804;2024-03-08T04:17:28;18.13;;;10.68;;
75295;SDS011;64623;44.738;37.804;2024-03-08T04:18:31;15.57;;;10.13;;
75295;SDS011;64623;44.738;37.804;2024-03-08T04:19:34;16.55;;;11.30;;
75295;SDS011;64623;44.738;37.804;2024-03-08T04:20:37;16.20;;;10.43;;
75295;SDS011;64623;44.738;37.804;2024-03-08T04:21:42;16.73;;;9.85;;
75295;SDS011;64623;44.738;37.804;2024-03-08T04:22:45;17.55;;;10.85;;
75295;SDS011;64623;44.738;37.804;2024-03-08T04:23:51;17.85;;;10.20;;
75295;SDS011;64623;44.738;37.804;2024-03-08T04:24:54;18.30;;;10.52;;
75295;SDS011;64623;44.738;37.804;2024-03-08T04:25:57;16.65;;;11.32;;
75295;SDS011;64623;44.738;37.804;2024-03-08T04:27:00;17.95;;;11.00;;
75295;SDS011;64623;44.738;37.804;2024-03-08T04:28:03;16.00;;;10.35;;
75295;SDS011;64623;44.738;37.804;2024-03-08T04:29:06;16.42;;;10.48;;
75295;SDS011;64623;44.738;37.804;2024-03-08T04:30:09;17.73;;;10.95;;
75295;SDS011;64623;44.738;37.804;2024-03-08T04:31:13;18.02;;;10.63;;
75295;SDS011;64623;44.738;37.804;2024-03-08T04:32:16;17.55;;;11.32;;
75295;SDS011;64623;44.738;37.804;2024-03-08T04:33:19;15.63;;;9.60;;
75295;SDS011;64623;44.738;37.804;2024-03-08T04:34:23;17.08;;;10.38;;
75295;SDS011;64623;44.738;37.804;2024-03-08T04:35:26;18.02;;;9.63;;
75295;SDS011;64623;44.738;37.804;2024-03-08T04:36:29;18.48;;;11.73;;
75295;SDS011;64623;44.738;37.804;2024-03-08T04:37:33;19.88;;;11.88;;
75295;SDS011;64623;44.738;37.804;2024-03-08T04:38:36;18.23;;;11.85;;
75295;SDS011;64623;44.738;37.804;2024-03-08T04:39:39;21.83;;;11.70;;
75295;SDS011;64623;44.738;37.804;2024-03-08T04:40:42;23.67;;;13.38;;
75295;SDS011;64623;44.738;37.804;2024-03-08T04:41:45;24.70;;;12.32;;
75295;SDS011;64623;44.738;37.804;2024-03-08T04:42:48;23.33;;;13.00;;
75295;SDS011;64623;44.738;37.804;2024-03-08T04:43:53;22.88;;;12.68;;
75295;SDS011;64623;44.738;37.804;2024-03-08T04:44:56;21.75;;;12.50;;
75295;SDS011;64623;44.738;37.804;2024-03-08T04:46:00;20.60;;;12.00;;
75295;SDS011;64623;44.738;37.804;2024-03-08T04:47:06;21.98;;;12.48;;
75295;SDS011;64623;44.738;37.804;2024-03-08T04:48:09;21.00;;;12.18;;
75295;SDS011;64623;44.738;37.804;2024-03-08T04:49:14;21.02;;;12.20;;
75295;SDS011;64623;44.738;37.804;2024-03-08T04:50:17;22.00;;;13.23;;
75295;SDS011;64623;44.738;37.804;2024-03-08T04:51:20;22.65;;;12.52;;
75295;SDS011;64623;44.738;37.804;2024-03-08T04:52:23;20.23;;;12.10;;
75295;SDS011;64623;44.738;37.804;2024-03-08T04:53:26;22.33;;;13.43;;
75295;SDS011;64623;44.738;37.804;2024-03-08T04:54:29;20.48;;;12.20;;
75295;SDS011;64623;44.738;37.804;2024-03-08T04:55:33;21.33;;;12.82;;
75295;SDS011;64623;44.738;37.804;2024-03-08T04:56:37;23.05;;;11.90;;
75295;SDS011;64623;44.738;37.804;2024-03-08T04:57:40;19.80;;;12.35;;
75295;SDS011;64623;44.738;37.804;2024-03-08T04:58:44;24.42;;;12.23;;
75295;SDS011;64623;44.738;37.804;2024-03-08T04:59:51;21.60;;;12.77;;
75295;SDS011;64623;44.738;37.804;2024-03-08T05:00:54;22.63;;;13.10;;
75295;SDS011;64623;44.738;37.804;2024-03-08T05:01:57;23.08;;;13.52;;
75295;SDS011;64623;44.738;37.804;2024-03-08T05:03:02;21.13;;;12.10;;
75295;SDS011;64623;44.738;37.804;2024-03-08T05:04:05;20.35;;;11.93;;
75295;SDS011;64623;44.738;37.804;2024-03-08T05:05:08;20.40;;;12.27;;
75295;SDS011;64623;44.738;37.804;2024-03-08T05:06:15;23.73;;;14.02;;
75295;SDS011;64623;44.738;37.804;2024-03-08T05:07:18;21.15;;;11.65;;
75295;SDS011;64623;44.738;37.804;2024-03-08T05:08:22;17.58;;;10.68;;
75295;SDS011;64623;44.738;37.804;2024-03-08T05:09:25;28.90;;;12.85;;
75295;SDS011;64623;44.738;37.804;2024-03-08T05:10:28;22.77;;;12.68;;
75295;SDS011;64623;44.738;37.804;2024-03-08T05:11:31;21.65;;;12.15;;
75295;SDS011;64623;44.738;37.804;2024-03-08T05:12:34;22.08;;;12.30;;
75295;SDS011;64623;44.738;37.804;2024-03-08T05:13:37;19.42;;;10.70;;
75295;SDS011;64623;44.738;37.804;2024-03-08T05:14:40;21.40;;;13.02;;
75295;SDS011;64623;44.738;37.804;2024-03-08T05:15:42;21.95;;;12.85;;
75295;SDS011;64623;44.738;37.804;2024-03-08T05:16:46;24.80;;;13.48;;
75295;SDS011;64623;44.738;37.804;2024-03-08T05:17:52;23.95;;;11.32;;
75295;SDS011;64623;44.738;37.804;2024-03-08T05:18:55;24.63;;;13.93;;
75295;SDS011;64623;44.738;37.804;2024-03-08T05:19:59;23.02;;;12.73;;
75295;SDS011;64623;44.738;37.804;2024-03-08T05:21:03;24.08;;;13.32;;
75295;SDS011;64623;44.738;37.804;2024-03-08T05:22:06;22.95;;;12.52;;
75295;SDS011;64623;44.738;37.804;2024-03-08T05:23:09;24.83;;;13.32;;
75295;SDS011;64623;44.738;37.804;2024-03-08T05:24:12;23.35;;;13.18;;
75295;SDS011;64623;44.738;37.804;2024-03-08T05:25:17;26.88;;;12.55;;
75295;SDS011;64623;44.738;37.804;2024-03-08T05:26:20;26.70;;;11.93;;
75295;SDS011;64623;44.738;37.804;2024-03-08T05:27:24;23.02;;;12.38;;
75295;SDS011;64623;44.738;37.804;2024-03-08T05:28:27;25.70;;;11.52;;
75295;SDS011;64623;44.738;37.804;2024-03-08T05:29:30;23.55;;;13.52;;
75295;SDS011;64623;44.738;37.804;2024-03-08T05:30:33;23.08;;;12.35;;
75295;SDS011;64623;44.738;37.804;2024-03-08T05:31:48;24.58;;;12.60;;
75295;SDS011;64623;44.738;37.804;2024-03-08T05:32:52;23.50;;;12.52;;
75295;SDS011;64623;44.738;37.804;2024-03-08T05:33:55;19.77;;;11.00;;
75295;SDS011;64623;44.738;37.804;2024-03-08T05:34:57;23.02;;;12.63;;
75295;SDS011;64623;44.738;37.804;2024-03-08T05:36:01;23.80;;;12.20;;
75295;SDS011;64623;44.738;37.804;2024-03-08T05:37:04;21.88;;;12.13;;
75295;SDS011;64623;44.738;37.804;2024-03-08T05:38:09;23.90;;;12.13;;
75295;SDS011;64623;44.738;37.804;2024-03-08T05:39:12;22.60;;;11.45;;
75295;SDS011;64623;44.738;37.804;2024-03-08T05:40:16;21.45;;;11.63;;
75295;SDS011;64623;44.738;37.804;2024-03-08T05:41:19;18.85;;;11.20;;
75295;SDS011;64623;44.738;37.804;2024-03-08T05:42:22;24.23;;;11.80;;
75295;SDS011;64623;44.738;37.804;2024-03-08T05:43:25;21.70;;;12.00;;
75295;SDS011;64623;44.738;37.804;2024-03-08T05:44:28;21.90;;;11.13;;
75295;SDS011;64623;44.738;37.804;2024-03-08T05:45:32;21.08;;;11.57;;
75295;SDS011;64623;44.738;37.804;2024-03-08T05:46:35;19.88;;;11.10;;
75295;SDS011;64623;44.738;37.804;2024-03-08T05:47:39;20.95;;;11.50;;
75295;SDS011;64623;44.738;37.804;2024-03-08T05:48:42;16.95;;;10.35;;
75295;SDS011;64623;44.738;37.804;2024-03-08T05:49:45;19.15;;;10.57;;
75295;SDS011;64623;44.738;37.804;2024-03-08T05:50:48;17.45;;;10.57;;
75295;SDS011;64623;44.738;37.804;2024-03-08T05:51:51;18.30;;;11.15;;
75295;SDS011;64623;44.738;37.804;2024-03-08T05:52:54;18.40;;;10.27;;
75295;SDS011;64623;44.738;37.804;2024-03-08T05:53:57;22.25;;;11.35;;
75295;SDS011;64623;44.738;37.804;2024-03-08T05:55:00;20.73;;;10.40;;
75295;SDS011;64623;44.738;37.804;2024-03-08T05:56:05;20.38;;;11.65;;
75295;SDS011;64623;44.738;37.804;2024-03-08T05:57:08;20.70;;;11.48;;
75295;SDS011;64623;44.738;37.804;2024-03-08T05:58:11;21.10;;;10.75;;
75295;SDS011;64623;44.738;37.804;2024-03-08T05:59:14;19.98;;;10.95;;
75295;SDS011;64623;44.738;37.804;2024-03-08T06:00:17;21.67;;;10.73;;
75295;SDS011;64623;44.738;37.804;2024-03-08T06:01:22;18.80;;;11.13;;
75295;SDS011;64623;44.738;37.804;2024-03-08T06:02:25;21.02;;;11.23;;
75295;SDS011;64623;44.738;37.804;2024-03-08T06:03:28;17.75;;;10.50;;
75295;SDS011;64623;44.738;37.804;2024-03-08T06:04:31;19.38;;;11.30;;
75295;SDS011;64623;44.738;37.804;2024-03-08T06:05:34;16.35;;;10.27;;
75295;SDS011;64623;44.738;37.804;2024-03-08T06:06:37;18.50;;;10.55;;
75295;SDS011;64623;44.738;37.804;2024-03-08T06:07:40;19.80;;;10.63;;
75295;SDS011;64623;44.738;37.804;2024-03-08T06:08:43;18.42;;;10.90;;
75295;SDS011;64623;44.738;37.804;2024-03-08T06:09:46;17.08;;;8.98;;
75295;SDS011;64623;44.738;37.804;2024-03-08T06:10:50;19.08;;;11.20;;
75295;SDS011;64623;44.738;37.804;2024-03-08T06:11:55;19.17;;;11.27;;
75295;SDS011;64623;44.738;37.804;2024-03-08T06:12:59;19.70;;;11.20;;
75295;SDS011;64623;44.738;37.804;2024-03-08T06:14:03;20.20;;;10.77;;
75295;SDS011;64623;44.738;37.804;2024-03-08T06:15:07;18.25;;;10.88;;
75295;SDS011;64623;44.738;37.804;2024-03-08T06:16:11;17.38;;;10.18;;